createdAt,value
2023-01-23T00:01:33.312Z,-0.60
2023-01-23T00:04:00.774Z,-0.60
2023-01-23T00:06:27.799Z,-0.60
2023-01-23T00:08:56.265Z,-0.60
2023-01-23T00:11:24.428Z,-0.60
2023-01-23T00:13:51.678Z,-0.60
2023-01-23T00:16:19.642Z,-0.60
2023-01-23T00:18:46.778Z,-0.70
2023-01-23T00:21:14.618Z,-0.60
2023-01-23T00:23:45.236Z,-0.70
2023-01-23T00:26:15.590Z,-0.70
2023-01-23T00:28:43.073Z,-0.70
2023-01-23T00:31:13.017Z,-0.60
2023-01-23T00:33:40.484Z,-0.60
2023-01-23T00:36:07.396Z,-0.60
2023-01-23T00:38:34.174Z,-0.70
2023-01-23T00:41:02.253Z,-0.60
2023-01-23T00:43:29.527Z,-0.60
2023-01-23T00:45:56.549Z,-0.60
2023-01-23T00:48:23.232Z,-0.70
2023-01-23T00:50:50.057Z,-0.70
2023-01-23T00:53:16.844Z,-0.70
2023-01-23T00:55:43.582Z,-0.60
2023-01-23T00:58:10.449Z,-0.70
2023-01-23T01:00:38.032Z,-0.80
2023-01-23T01:03:05.236Z,-0.70
2023-01-23T01:05:32.325Z,-0.80
2023-01-23T01:07:59.121Z,-0.80
2023-01-23T01:10:29.568Z,-0.70
2023-01-23T01:13:00.954Z,-0.80
2023-01-23T01:15:28.183Z,-0.80
2023-01-23T01:17:54.891Z,-0.80
2023-01-23T01:20:23.647Z,-0.80
2023-01-23T01:22:50.844Z,-0.80
2023-01-23T01:25:17.941Z,-0.90
2023-01-23T01:27:44.929Z,-0.90
2023-01-23T01:30:11.974Z,-0.80
2023-01-23T01:32:39.829Z,-0.90
2023-01-23T01:35:07.194Z,-0.90
2023-01-23T01:37:34.891Z,-0.90
2023-01-23T01:40:01.711Z,-0.80
2023-01-23T01:42:28.672Z,-0.80
2023-01-23T01:44:59.590Z,0.30
2023-01-23T01:47:26.584Z,-0.90
2023-01-23T01:49:55.676Z,-0.80
2023-01-23T01:52:24.314Z,-0.80
2023-01-23T01:54:55.822Z,-0.80
2023-01-23T01:57:27.281Z,-0.90
2023-01-23T01:59:56.533Z,-0.90
2023-01-23T02:02:29.111Z,-0.90
2023-01-23T02:05:01.662Z,-0.90
2023-01-23T02:07:33.035Z,-0.90
2023-01-23T02:10:00.738Z,-0.80
2023-01-23T02:12:28.210Z,-0.80
2023-01-23T02:14:54.954Z,-0.80
2023-01-23T02:17:21.967Z,-0.80
2023-01-23T02:20:00.888Z,-0.80
2023-01-23T02:22:49.589Z,-0.90
2023-01-23T02:25:25.920Z,-0.80
2023-01-23T02:27:52.590Z,-0.80
2023-01-23T02:30:20.991Z,-0.80
2023-01-23T02:32:47.999Z,-0.80
2023-01-23T02:35:30.587Z,-0.80
2023-01-23T02:38:00.365Z,-0.80
2023-01-23T02:40:36.488Z,-0.80
2023-01-23T02:43:04.390Z,-0.80
2023-01-23T02:45:31.376Z,-0.80
2023-01-23T02:47:58.191Z,-0.60
2023-01-23T02:50:24.855Z,-0.80
2023-01-23T02:52:54.710Z,-0.70
2023-01-23T02:55:21.835Z,-0.70
2023-01-23T02:57:48.458Z,-0.70
2023-01-23T03:00:20.677Z,-0.70
2023-01-23T03:02:48.630Z,-0.70
2023-01-23T03:05:15.887Z,-0.70
2023-01-23T03:07:43.033Z,-0.70
2023-01-23T03:10:10.595Z,-0.70
2023-01-23T03:12:42.488Z,-0.70
2023-01-23T03:15:09.458Z,-0.70
2023-01-23T03:17:37.001Z,-0.70
2023-01-23T03:20:06.010Z,-0.70
2023-01-23T03:22:32.676Z,-0.70
2023-01-23T03:24:59.423Z,-0.70
2023-01-23T03:27:26.079Z,-0.70
2023-01-23T03:30:11.357Z,-0.70
2023-01-23T03:32:38.727Z,-0.70
2023-01-23T03:35:06.157Z,-0.70
2023-01-23T03:37:32.831Z,-0.80
2023-01-23T03:40:18.185Z,-0.70
2023-01-23T03:42:45.067Z,-0.70
2023-01-23T03:45:11.884Z,-0.70
2023-01-23T03:47:38.573Z,0.50
2023-01-23T03:50:06.074Z,-0.70
2023-01-23T03:52:32.778Z,-0.70
2023-01-23T03:54:59.441Z,-0.70
2023-01-23T03:57:26.205Z,-0.70
2023-01-23T03:59:52.896Z,-0.70
2023-01-23T04:02:19.761Z,-0.70
2023-01-23T04:04:46.409Z,-0.70
2023-01-23T04:07:14.211Z,-0.70
2023-01-23T04:09:40.950Z,-0.70
2023-01-23T04:12:07.697Z,-0.70
2023-01-23T04:14:37.588Z,-0.70
2023-01-23T04:17:05.032Z,-0.70
2023-01-23T04:19:31.812Z,-0.70
2023-01-23T04:21:58.483Z,-0.70
2023-01-23T04:24:25.234Z,-0.70
2023-01-23T04:26:52.263Z,-0.70
2023-01-23T04:29:18.885Z,-0.70
2023-01-23T04:31:45.710Z,-0.70
2023-01-23T04:34:12.406Z,-0.70
2023-01-23T04:36:39.060Z,-0.70
2023-01-23T04:39:05.770Z,-0.70
2023-01-23T04:41:32.745Z,-0.70
2023-01-23T04:44:20.377Z,-0.70
2023-01-23T04:46:53.002Z,-0.70
2023-01-23T04:49:20.387Z,-0.70
2023-01-23T04:51:48.237Z,-0.70
2023-01-23T04:54:15.071Z,-0.70
2023-01-23T04:56:42.077Z,-0.70
2023-01-23T04:59:08.820Z,-0.70
2023-01-23T05:01:35.575Z,-0.70
2023-01-23T05:04:02.448Z,-0.70
2023-01-23T05:06:29.282Z,-0.70
2023-01-23T05:08:55.971Z,-0.70
2023-01-23T05:11:22.619Z,-0.70
2023-01-23T05:13:49.305Z,-0.70
2023-01-23T05:16:16.054Z,-0.10
2023-01-23T05:18:42.748Z,-0.70
2023-01-23T05:21:09.450Z,-0.70
2023-01-23T05:23:36.152Z,-0.70
2023-01-23T05:26:02.857Z,-0.70
2023-01-23T05:28:29.517Z,-0.70
2023-01-23T05:30:57.016Z,-0.70
2023-01-23T05:33:23.785Z,-0.70
2023-01-23T05:35:50.421Z,-0.70
2023-01-23T05:38:17.053Z,-0.70
2023-01-23T05:40:43.857Z,-0.70
2023-01-23T05:43:14.453Z,-0.60
2023-01-23T05:45:41.115Z,-0.70
2023-01-23T05:48:07.899Z,-0.60
2023-01-23T05:50:34.701Z,-0.70
2023-01-23T05:53:01.485Z,-0.70
2023-01-23T05:55:28.153Z,-0.60
2023-01-23T05:57:54.810Z,-0.60
2023-01-23T06:00:21.726Z,-0.60
2023-01-23T06:02:48.798Z,-0.60
2023-01-23T06:05:15.673Z,-0.60
2023-01-23T06:07:42.344Z,-0.60
2023-01-23T06:10:10.040Z,-0.60
2023-01-23T06:12:37.127Z,-0.60
2023-01-23T06:15:04.527Z,-0.60
2023-01-23T06:17:31.289Z,-0.60
2023-01-23T06:19:58.751Z,-0.60
2023-01-23T06:22:25.417Z,-0.50
2023-01-23T06:24:52.751Z,1.40
2023-01-23T06:27:19.739Z,-0.60
2023-01-23T06:29:46.487Z,-0.60
2023-01-23T06:32:13.450Z,-0.60
2023-01-23T06:34:40.157Z,-0.60
2023-01-23T06:37:07.035Z,-0.60
2023-01-23T06:39:34.346Z,-0.60
2023-01-23T06:42:01.137Z,-0.60
2023-01-23T06:44:27.833Z,-0.50
2023-01-23T06:46:54.501Z,-0.60
2023-01-23T06:49:21.205Z,-0.60
2023-01-23T06:51:47.991Z,-0.50
2023-01-23T06:54:14.614Z,-0.50
2023-01-23T06:56:41.271Z,-0.50
2023-01-23T06:59:07.933Z,-0.60
2023-01-23T07:01:34.740Z,-0.50
2023-01-23T07:04:01.379Z,0.20
2023-01-23T07:06:28.094Z,-0.50
2023-01-23T07:08:54.752Z,-0.60
2023-01-23T07:11:21.500Z,-0.50
2023-01-23T07:13:48.154Z,-0.50
2023-01-23T07:16:14.852Z,-0.50
2023-01-23T07:18:41.576Z,-0.50
2023-01-23T07:21:08.305Z,-0.50
2023-01-23T07:23:35.054Z,-0.50
2023-01-23T07:26:03.480Z,-0.50
2023-01-23T07:28:30.615Z,-0.50
2023-01-23T07:30:58.011Z,1.50
2023-01-23T07:33:24.784Z,-0.50
2023-01-23T07:35:51.551Z,-0.50
2023-01-23T07:38:18.360Z,-0.50
2023-01-23T07:40:45.445Z,2.90
2023-01-23T07:43:12.347Z,-0.50
2023-01-23T07:45:39.091Z,1.20
2023-01-23T07:48:05.840Z,-0.50
2023-01-23T07:50:32.589Z,-0.60
2023-01-23T07:52:59.288Z,-0.60
2023-01-23T07:55:25.993Z,-0.60
2023-01-23T07:57:52.683Z,-0.50
2023-01-23T08:00:21.691Z,-0.50
2023-01-23T08:02:49.580Z,-0.50
2023-01-23T08:05:16.287Z,-0.50
2023-01-23T08:07:43.147Z,-0.50
2023-01-23T08:10:10.295Z,-0.50
2023-01-23T08:12:37.060Z,-0.50
2023-01-23T08:15:04.206Z,-0.50
2023-01-23T08:17:30.924Z,-0.50
2023-01-23T08:19:57.685Z,-0.40
2023-01-23T08:22:24.491Z,-0.50
2023-01-23T08:24:51.347Z,-0.50
2023-01-23T08:27:17.997Z,1.70
2023-01-23T08:29:44.707Z,0.50
2023-01-23T08:32:11.357Z,-0.50
2023-01-23T08:34:38.085Z,-0.50
2023-01-23T08:37:04.791Z,-0.50
2023-01-23T08:39:31.468Z,-0.50
2023-01-23T08:41:58.167Z,-0.40
2023-01-23T08:44:25.008Z,-0.40
2023-01-23T08:46:51.800Z,-0.40
2023-01-23T08:49:20.349Z,-0.40
2023-01-23T08:51:47.133Z,-0.40
2023-01-23T08:54:13.902Z,1.70
2023-01-23T08:56:41.330Z,-0.30
2023-01-23T08:59:08.046Z,-0.30
2023-01-23T09:01:34.760Z,-0.30
2023-01-23T09:04:01.595Z,-0.20
2023-01-23T09:06:28.269Z,-0.20
2023-01-23T09:08:54.962Z,-0.10
2023-01-23T09:11:23.304Z,0.00
2023-01-23T09:13:52.250Z,0.00
2023-01-23T09:16:20.448Z,0.10
2023-01-23T09:18:47.207Z,0.00
2023-01-23T09:21:15.556Z,0.80
2023-01-23T09:23:42.474Z,0.10
2023-01-23T09:26:10.455Z,0.20
2023-01-23T09:28:38.745Z,0.20
2023-01-23T09:31:07.353Z,0.20
2023-01-23T09:33:34.824Z,0.20
2023-01-23T09:36:01.590Z,0.20
2023-01-23T09:38:28.349Z,0.20
2023-01-23T09:40:58.672Z,0.20
2023-01-23T09:43:36.057Z,0.20
2023-01-23T09:46:02.813Z,0.20
2023-01-23T09:48:49.968Z,0.20
2023-01-23T09:51:25.703Z,0.20
2023-01-23T09:53:53.154Z,0.20
2023-01-23T09:56:20.727Z,0.40
2023-01-23T09:58:58.826Z,0.20
2023-01-23T10:01:27.536Z,0.10
2023-01-23T10:03:54.381Z,0.10
2023-01-23T10:06:23.933Z,0.10
2023-01-23T10:09:09.429Z,0.10
2023-01-23T10:11:42.860Z,0.00
2023-01-23T10:14:21.080Z,0.00
2023-01-23T10:16:55.382Z,-0.10
2023-01-23T10:19:28.213Z,-0.10
2023-01-23T10:21:59.527Z,-0.10
2023-01-23T10:24:45.665Z,0.00
2023-01-23T10:27:18.821Z,0.00
2023-01-23T10:30:05.797Z,0.00
2023-01-23T10:32:41.374Z,0.00
2023-01-23T10:35:40.513Z,0.20
2023-01-23T10:38:07.388Z,0.30
2023-01-23T10:40:52.865Z,0.40
2023-01-23T10:43:20.938Z,0.50
2023-01-23T10:45:48.651Z,0.60
2023-01-23T10:48:27.731Z,0.50
2023-01-23T10:50:55.580Z,0.50
2023-01-23T10:53:22.755Z,2.40
2023-01-23T10:55:50.649Z,0.40
2023-01-23T10:58:33.449Z,0.40
2023-01-23T11:01:00.426Z,0.40
2023-01-23T11:03:29.244Z,0.30
2023-01-23T11:05:57.126Z,0.40
2023-01-23T11:08:23.771Z,0.30
2023-01-23T11:10:50.510Z,0.30
2023-01-23T11:13:28.104Z,0.20
2023-01-23T11:15:54.963Z,0.20
2023-01-23T11:18:30.280Z,0.20
2023-01-23T11:20:56.935Z,0.20
2023-01-23T11:23:23.780Z,0.20
2023-01-23T11:25:51.492Z,0.20
2023-01-23T11:28:27.434Z,0.20
2023-01-23T11:31:14.767Z,0.20
2023-01-23T11:33:44.453Z,0.20
2023-01-23T11:36:17.619Z,0.40
2023-01-23T11:38:53.339Z,0.20
2023-01-23T11:41:22.572Z,0.30
2023-01-23T11:43:49.340Z,0.30
2023-01-23T11:46:22.267Z,0.30
2023-01-23T11:49:15.307Z,0.30
2023-01-23T11:52:02.261Z,0.30
2023-01-23T11:54:47.955Z,0.30
2023-01-23T11:57:36.469Z,0.30
2023-01-23T12:00:11.038Z,0.30
2023-01-23T12:02:49.883Z,0.80
2023-01-23T12:05:26.411Z,0.20
2023-01-23T12:08:05.368Z,0.30
2023-01-23T12:10:50.954Z,0.30
2023-01-23T12:13:40.621Z,0.30
2023-01-23T12:16:16.507Z,0.20
2023-01-23T12:18:43.219Z,0.30
2023-01-23T12:21:18.027Z,0.30
2023-01-23T12:23:45.644Z,0.20
2023-01-23T12:26:13.961Z,0.20
2023-01-23T12:28:52.993Z,0.20
2023-01-23T12:31:52.287Z,0.20
2023-01-23T12:34:37.258Z,-0.10
2023-01-23T12:37:29.120Z,0.30
2023-01-23T12:40:03.626Z,0.30
2023-01-23T12:42:51.712Z,0.20
2023-01-23T12:45:23.381Z,0.20
2023-01-23T12:47:53.449Z,0.30
2023-01-23T12:50:23.360Z,0.30
2023-01-23T12:52:57.746Z,0.40
2023-01-23T12:55:26.744Z,0.40
2023-01-23T12:58:08.936Z,0.40
2023-01-23T13:00:42.426Z,0.50
2023-01-23T13:03:15.356Z,0.60
2023-01-23T13:06:02.343Z,0.70
2023-01-23T13:09:02.655Z,0.80
2023-01-23T13:11:40.914Z,0.80
2023-01-23T13:14:17.800Z,0.80
2023-01-23T13:16:50.237Z,0.80
2023-01-23T13:19:45.981Z,0.80
2023-01-23T13:22:22.261Z,0.80
2023-01-23T13:25:12.813Z,0.80
2023-01-23T13:27:44.843Z,0.80
2023-01-23T13:30:26.899Z,0.80
2023-01-23T13:32:55.260Z,0.70
2023-01-23T13:35:40.268Z,1.50
2023-01-23T13:38:22.189Z,0.70
2023-01-23T13:41:19.329Z,0.70
2023-01-23T13:43:55.558Z,0.60
2023-01-23T14:21:20.741Z,0.60
2023-01-23T14:23:49.936Z,0.60
2023-01-23T14:26:17.557Z,0.60
2023-01-23T14:28:51.030Z,0.60
2023-01-23T14:31:22.392Z,0.60
2023-01-23T14:33:50.795Z,0.60
2023-01-23T14:36:19.537Z,0.70
2023-01-23T14:38:48.056Z,0.70
2023-01-23T14:41:15.944Z,0.80
2023-01-23T14:43:43.561Z,0.70
2023-01-23T14:46:15.112Z,0.80
2023-01-23T14:48:42.495Z,0.70
2023-01-23T14:51:15.556Z,0.80
2023-01-23T14:53:43.080Z,0.60
2023-01-23T14:56:10.895Z,0.80
2023-01-23T14:58:38.024Z,0.80
2023-01-23T15:01:04.933Z,0.70
2023-01-23T15:03:35.474Z,0.70
2023-01-23T15:06:03.499Z,0.70
2023-01-23T15:08:32.429Z,0.80
2023-01-23T15:11:00.659Z,3.30
2023-01-23T15:13:35.173Z,0.70
2023-01-23T15:16:03.535Z,0.70
2023-01-23T15:18:34.896Z,0.70
2023-01-23T15:21:05.840Z,0.70
2023-01-23T15:23:37.451Z,1.30
2023-01-23T15:26:12.172Z,0.70
2023-01-23T15:28:40.274Z,0.70
2023-01-23T15:31:21.394Z,0.70
2023-01-23T15:33:48.156Z,0.70
2023-01-23T15:36:26.343Z,0.70
2023-01-23T15:38:53.677Z,0.60
2023-01-23T15:41:33.753Z,0.70
2023-01-23T15:44:01.186Z,0.60
2023-01-23T15:46:27.955Z,0.60
2023-01-23T15:48:54.752Z,3.80
2023-01-23T15:51:21.491Z,0.70
2023-01-23T15:53:48.256Z,0.70
2023-01-23T15:56:24.371Z,0.70
2023-01-23T15:58:52.883Z,0.80
2023-01-23T16:01:19.579Z,0.80
2023-01-23T16:03:46.496Z,0.80
2023-01-23T16:06:21.185Z,0.90
2023-01-23T16:08:55.121Z,0.80
2023-01-23T16:11:28.912Z,1.70
2023-01-23T16:13:55.550Z,0.90
2023-01-23T16:16:22.288Z,0.80
2023-01-23T16:18:49.012Z,0.90
2023-01-23T16:21:20.185Z,0.80
2023-01-23T16:23:48.015Z,0.80
2023-01-23T16:26:21.830Z,1.50
2023-01-23T16:28:48.878Z,0.80
2023-01-23T16:31:16.689Z,0.80
2023-01-23T16:33:43.693Z,0.80
2023-01-23T16:36:17.594Z,0.80
2023-01-23T16:38:52.651Z,0.80
2023-01-23T16:41:19.646Z,0.80
2023-01-23T16:43:46.340Z,0.80
2023-01-23T16:46:13.404Z,0.80
2023-01-23T16:48:40.301Z,0.80
2023-01-23T16:51:11.783Z,0.80
2023-01-23T16:53:41.496Z,0.80
2023-01-23T16:56:15.600Z,0.80
2023-01-23T16:58:42.330Z,0.70
2023-01-23T17:01:14.279Z,0.70
2023-01-23T17:03:41.467Z,0.70
2023-01-23T17:06:12.421Z,0.70
2023-01-23T17:08:39.225Z,0.70
2023-01-23T17:11:06.074Z,0.70
2023-01-23T17:13:35.164Z,0.60
2023-01-23T17:16:03.496Z,0.60
2023-01-23T17:18:34.987Z,0.60
2023-01-23T17:21:03.491Z,0.60
2023-01-23T17:23:30.221Z,0.60
2023-01-23T17:26:01.608Z,0.60
2023-01-23T17:28:28.619Z,0.60
2023-01-23T17:30:55.576Z,0.60
2023-01-23T17:33:23.397Z,0.50
2023-01-23T17:35:50.581Z,1.70
2023-01-23T17:38:19.144Z,0.50
2023-01-23T17:40:46.502Z,0.50
2023-01-23T17:43:14.079Z,0.50
2023-01-23T17:45:42.200Z,0.50
2023-01-23T17:48:12.861Z,1.40
2023-01-23T17:50:41.065Z,0.50
2023-01-23T17:53:09.104Z,0.50
2023-01-23T17:55:36.076Z,2.90
2023-01-23T17:58:03.003Z,0.50
2023-01-23T18:00:29.868Z,0.40
2023-01-23T18:02:57.734Z,0.50
2023-01-23T18:05:24.588Z,1.10
2023-01-23T18:07:54.140Z,0.50
2023-01-23T18:10:22.186Z,0.50
2023-01-23T18:12:53.676Z,0.50
2023-01-23T18:15:29.441Z,0.50
2023-01-23T18:18:12.554Z,0.50
2023-01-23T18:20:39.395Z,0.50
2023-01-23T18:23:07.151Z,0.50
2023-01-23T18:25:33.913Z,0.50
2023-01-23T18:28:05.073Z,0.50
2023-01-23T18:30:37.923Z,0.50
2023-01-23T18:33:05.778Z,0.50
2023-01-23T18:35:51.292Z,0.50
2023-01-23T18:38:18.111Z,0.50
2023-01-23T18:40:47.885Z,0.50
2023-01-23T18:43:23.887Z,0.50
2023-01-23T18:45:50.893Z,0.60
2023-01-23T18:48:25.487Z,1.50
2023-01-23T18:51:01.613Z,0.60
2023-01-23T18:53:43.407Z,0.60
2023-01-23T18:56:10.071Z,0.60
2023-01-23T18:58:45.872Z,0.60
2023-01-23T19:01:21.782Z,0.60
2023-01-23T19:03:48.849Z,0.60
2023-01-23T19:06:18.613Z,0.60
2023-01-23T19:08:45.434Z,0.60
2023-01-23T19:11:19.257Z,0.60
2023-01-23T19:14:01.459Z,0.70
2023-01-23T19:16:28.116Z,0.60
2023-01-23T19:19:15.399Z,0.70
2023-01-23T19:21:42.897Z,0.60
2023-01-23T19:24:12.711Z,0.70
2023-01-23T19:26:40.882Z,0.60
2023-01-23T19:29:20.882Z,0.70
2023-01-23T19:32:02.817Z,0.70
2023-01-23T19:34:31.290Z,0.70
2023-01-23T19:36:58.062Z,0.70
2023-01-23T19:39:24.775Z,0.70
2023-01-23T19:41:52.872Z,0.70
2023-01-23T19:44:20.808Z,0.70
2023-01-23T19:46:47.907Z,0.70
2023-01-23T19:49:14.582Z,0.70
2023-01-23T19:51:41.834Z,0.70
2023-01-23T19:54:12.628Z,0.70
2023-01-23T19:56:39.664Z,0.80
2023-01-23T19:59:06.945Z,3.90
2023-01-23T20:01:35.502Z,0.80
2023-01-23T20:04:02.783Z,0.80
2023-01-23T20:06:29.520Z,0.70
2023-01-23T20:08:56.282Z,0.80
2023-01-23T20:11:23.003Z,0.80
2023-01-23T20:13:49.678Z,0.80
2023-01-23T20:16:20.868Z,0.80
2023-01-23T20:18:50.600Z,0.80
2023-01-23T20:21:18.058Z,0.80
2023-01-23T20:23:45.346Z,0.80
2023-01-23T20:26:12.150Z,0.80
2023-01-23T20:28:39.020Z,0.80
2023-01-23T20:31:06.855Z,0.80
2023-01-23T20:33:33.616Z,0.80
2023-01-23T20:36:00.663Z,0.80
2023-01-23T20:38:27.594Z,1.20
2023-01-23T20:40:54.340Z,0.80
2023-01-23T20:43:21.382Z,0.80
2023-01-23T20:45:49.477Z,0.70
2023-01-23T20:48:16.516Z,0.80
2023-01-23T20:50:43.675Z,0.80
2023-01-23T20:53:29.793Z,0.80
2023-01-23T20:56:07.992Z,0.80
2023-01-23T20:58:53.935Z,0.80
2023-01-23T21:01:22.013Z,0.80
2023-01-23T21:03:50.369Z,0.80
2023-01-23T21:06:17.655Z,0.80
2023-01-23T21:08:44.940Z,0.80
2023-01-23T21:11:12.775Z,0.80
2023-01-23T21:13:39.737Z,0.80
2023-01-23T21:16:08.570Z,0.80
2023-01-23T21:18:36.268Z,0.80
2023-01-23T21:21:04.444Z,0.80
2023-01-23T21:23:31.064Z,0.80
2023-01-23T21:25:59.136Z,0.80
2023-01-23T21:28:27.016Z,0.80
2023-01-23T21:30:53.768Z,0.80
2023-01-23T21:33:20.581Z,0.80
2023-01-23T21:35:47.941Z,0.80
2023-01-23T21:38:14.692Z,0.80
2023-01-23T21:40:41.353Z,0.80
2023-01-23T21:43:08.006Z,0.80
2023-01-23T21:45:34.589Z,1.80
2023-01-23T21:48:01.392Z,0.80
2023-01-23T21:50:28.065Z,0.90
2023-01-23T21:52:54.779Z,0.90
2023-01-23T21:55:21.664Z,2.30
2023-01-23T21:57:49.456Z,0.80
2023-01-23T22:00:34.783Z,0.90
2023-01-23T22:03:01.590Z,0.90
2023-01-23T22:05:28.223Z,0.90
2023-01-23T22:07:55.008Z,0.90
2023-01-23T22:10:21.844Z,0.90
2023-01-23T22:12:48.525Z,0.90
2023-01-23T22:15:15.199Z,0.90
2023-01-23T22:17:41.851Z,0.90
2023-01-23T22:20:09.132Z,0.90
2023-01-23T22:22:35.760Z,0.90
2023-01-23T22:25:02.438Z,0.90
2023-01-23T22:27:29.079Z,0.90
2023-01-23T22:29:55.771Z,0.90
2023-01-23T22:32:22.502Z,1.00
2023-01-23T22:34:49.260Z,0.90
2023-01-23T22:37:16.129Z,1.00
2023-01-23T22:39:44.019Z,1.00
2023-01-23T22:42:10.627Z,1.00
2023-01-23T22:44:37.339Z,1.00
2023-01-23T22:47:05.102Z,1.00
2023-01-23T22:49:31.862Z,1.00
2023-01-23T22:51:58.622Z,1.10
2023-01-23T22:54:25.287Z,1.10
2023-01-23T22:56:51.916Z,1.10
2023-01-23T22:59:18.593Z,1.10
2023-01-23T23:01:45.368Z,1.10
2023-01-23T23:04:12.026Z,1.20
2023-01-23T23:06:38.640Z,1.20
2023-01-23T23:09:05.639Z,1.20
2023-01-23T23:11:32.321Z,1.20
2023-01-23T23:13:59.088Z,1.10
2023-01-23T23:16:30.964Z,1.20
2023-01-23T23:18:59.062Z,1.10
2023-01-23T23:21:28.270Z,1.10
2023-01-23T23:23:56.624Z,1.20
2023-01-23T23:26:23.549Z,1.20
2023-01-23T23:28:50.475Z,1.10
2023-01-23T23:31:17.101Z,1.10
2023-01-23T23:33:43.830Z,1.10
2023-01-23T23:36:10.494Z,1.10
2023-01-23T23:38:37.369Z,1.10
2023-01-23T23:41:05.610Z,1.10
2023-01-23T23:43:32.560Z,1.10
2023-01-23T23:46:00.678Z,1.10
2023-01-23T23:48:28.038Z,1.10
2023-01-23T23:50:54.688Z,1.20
2023-01-23T23:53:21.907Z,1.10
2023-01-23T23:55:48.619Z,1.10
2023-01-23T23:58:15.484Z,1.10
